Terminal Aerodrome Forecast
Issued by NWS

Home | Current Version | Previous Version | Text Only | Print | Product List | Glossary On
Versions: 1 2 3 4 5 6 7 8 9 10 11 12 13 14 15 16 17 18 19 20 21 22 23 24 25 26 27 28 29 30 31 32 33 34 35 36 37 38 39 40 41 42 43 44 45 46 47 48 49 50
614
FTUS42 KGSP 301739
TAFHKY
TAF
KHKY 301739Z 3018/0118 06006KT P6SM OVC009
     FM302200 07006KT P6SM -SHRA SCT012 OVC025
      TEMPO 3022/0102 4SM -TSRA OVC007CB
     FM010300 07006KT 2SM -SHRA BR OVC003
     FM010800 13007KT 2SM -SHRA BR OVC003
     FM011000 17006KT 2SM -SHRA BR OVC003
     FM011500 20007KT P6SM -SHRA OVC008
     FM011600 20008KT P6SM -SHRA VCTS OVC015CB=

USA.gov is the U.S. government's official web portal to all federal, state and local government web resources and services.